Time;durP1;ratioP1;P1;durP2;ratioP2;P2;SDS_P1;SDS_P2;PMS_P1;PMS_P2;Temp;Humidity;BMP_temperature;BMP_pressure;BME280_temperature;BME280_humidity;BME280_pressure;Samples;Min_cycle;Max_cycle;Signal;HPM_P1;HPM_P2
2022/04/09 00:00:28;;;;;;;1.02;0.70;;;;;;;14.77;42.26;102187.75;5068910;28;20055;-74
2022/04/09 00:02:57;;;;;;;2.17;0.60;;;;;;;14.85;39.95;102179.38;5068213;28;20110;-76
2022/04/09 00:05:26;;;;;;;0.80;0.40;;;;;;;14.83;40.37;102172.34;5069450;28;20040;-74
2022/04/09 00:07:54;;;;;;;0.95;0.30;;;;;;;14.80;40.95;102162.69;5068619;28;20106;-72
2022/04/09 00:10:24;;;;;;;1.55;0.50;;;;;;;14.77;41.82;102170.38;5072884;28;20593;-75
2022/04/09 00:12:53;;;;;;;1.55;0.50;;;;;;;14.76;41.39;102155.59;5069400;28;20071;-76
2022/04/09 00:15:22;;;;;;;1.80;0.55;;;;;;;14.79;42.16;102160.91;5048487;28;20052;-74
2022/04/09 00:17:50;;;;;;;0.50;0.30;;;;;;;14.73;41.65;102152.91;5048729;28;20098;-74
2022/04/09 00:20:19;;;;;;;0.75;0.40;;;;;;;14.66;41.92;102169.16;5049460;28;20057;-70
2022/04/09 00:22:48;;;;;;;1.67;0.43;;;;;;;14.50;41.35;102169.38;5057832;28;20359;-73
2022/04/09 00:25:21;;;;;;;2.10;0.52;;;;;;;14.45;43.44;102167.53;5068841;28;20680;-71
2022/04/09 00:27:51;;;;;;;1.35;0.60;;;;;;;14.37;43.55;102163.75;5069101;28;20052;-73
2022/04/09 00:30:21;;;;;;;1.75;0.50;;;;;;;14.39;42.87;102163.81;5069180;28;20053;-71
2022/04/09 00:32:49;;;;;;;3.05;0.90;;;;;;;14.36;42.93;102163.69;5068830;28;20702;-73
2022/04/09 00:35:18;;;;;;;2.35;0.70;;;;;;;14.33;43.72;102164.44;5069102;28;20060;-73
2022/04/09 00:37:47;;;;;;;2.20;0.63;;;;;;;14.31;43.51;102160.03;5068703;28;20084;-74
2022/04/09 00:40:18;;;;;;;3.03;0.93;;;;;;;14.23;43.11;102172.78;5068618;28;20075;-72
2022/04/09 00:42:47;;;;;;;1.58;0.63;;;;;;;14.21;43.63;102164.00;5068768;28;20048;-74
2022/04/09 00:45:17;;;;;;;1.85;0.70;;;;;;;14.18;45.05;102166.50;5068365;28;20084;-74
2022/04/09 00:47:46;;;;;;;1.55;0.70;;;;;;;14.16;44.83;102162.97;5068067;28;20068;-74
2022/04/09 00:50:14;;;;;;;1.45;0.57;;;;;;;14.18;44.76;102169.13;5067785;28;20102;-74
2022/04/09 00:52:49;;;;;;;1.55;0.75;;;;;;;14.17;45.11;102175.13;5067825;28;20044;-72
2022/04/09 00:56:13;;;;;;;1.42;0.60;;;;;;;14.17;44.39;102177.75;5068193;28;20446;-73
2022/04/09 00:58:15;;;;;;;2.33;0.50;;;;;;;14.09;45.56;102166.13;5067204;28;20424;-71
2022/04/09 01:00:45;;;;;;;4.47;0.80;;;;;;;14.13;46.19;102171.53;5067527;28;20536;-72
2022/04/09 01:03:16;;;;;;;0.73;0.50;;;;;;;14.15;45.75;102176.78;5067371;28;20102;-71
2022/04/09 01:05:45;;;;;;;3.00;0.70;;;;;;;14.15;45.62;102167.25;5067841;28;20056;-71
2022/04/09 01:08:15;;;;;;;2.40;0.70;;;;;;;14.14;45.21;102164.63;5067901;28;20132;-72
2022/04/09 01:10:47;;;;;;;1.27;0.60;;;;;;;14.09;45.10;102163.53;5068147;28;20090;-71
2022/04/09 01:13:16;;;;;;;;;;;;;;;14.00;45.36;102180.59;5068360;28;20102;-74
2022/04/09 01:15:46;;;;;;;1.48;0.60;;;;;;;13.94;45.78;102180.34;5068136;28;19936;-70
2022/04/09 01:18:15;;;;;;;1.20;0.40;;;;;;;13.95;46.59;102186.44;5068492;28;20098;-71
2022/04/09 01:20:44;;;;;;;1.80;0.80;;;;;;;13.90;44.88;102181.06;5068378;28;20053;-72
2022/04/09 01:23:14;;;;;;;2.83;0.45;;;;;;;13.81;45.06;102171.19;5067661;28;20127;-70
2022/04/09 01:25:43;;;;;;;3.30;0.85;;;;;;;13.74;45.01;102165.69;5070734;28;20087;-72
2022/04/09 01:28:12;;;;;;;1.73;0.70;;;;;;;13.83;44.78;102187.75;5072059;28;20146;-73
2022/04/09 01:30:40;;;;;;;1.10;0.40;;;;;;;13.76;44.18;102190.03;5072304;28;20052;-71
2022/04/09 01:33:09;;;;;;;3.38;0.80;;;;;;;13.62;44.66;102177.38;5072336;28;20471;-71
2022/04/09 01:35:37;;;;;;;1.10;0.57;;;;;;;13.53;44.61;102174.41;5071903;28;20053;-72
2022/04/09 01:38:06;;;;;;;0.98;0.52;;;;;;;13.48;44.71;102181.16;5072367;28;20044;-72
2022/04/09 01:40:36;;;;;;;1.90;0.40;;;;;;;13.43;44.25;102187.88;5072060;28;20594;-71
2022/04/09 01:43:05;;;;;;;0.80;0.50;;;;;;;13.31;43.80;102174.34;5071499;28;20462;-72
2022/04/09 01:45:34;;;;;;;1.90;0.38;;;;;;;13.27;43.96;102185.44;5071904;28;20060;-72
2022/04/09 01:48:03;;;;;;;1.88;0.50;;;;;;;13.23;45.16;102181.81;5071920;28;20052;-71
2022/04/09 01:50:32;;;;;;;1.75;0.45;;;;;;;13.18;45.70;102186.81;5071468;28;20756;-71
2022/04/09 01:53:01;;;;;;;0.75;0.38;;;;;;;13.11;45.29;102184.81;5071171;28;20497;-70
2022/04/09 01:55:29;;;;;;;1.65;0.45;;;;;;;13.05;45.01;102186.25;5071317;28;20064;-71
2022/04/09 01:58:00;;;;;;;0.85;0.20;;;;;;;12.97;44.30;102186.81;5072481;28;20105;-70
2022/04/09 02:00:28;;;;;;;1.10;0.20;;;;;;;12.89;44.53;102197.69;5070866;28;20053;-70
2022/04/09 02:02:57;;;;;;;4.68;0.57;;;;;;;12.77;44.63;102201.53;5070570;28;20579;-70
2022/04/09 02:05:26;;;;;;;0.50;0.32;;;;;;;12.62;44.57;102195.69;5069656;28;20063;-69
2022/04/09 02:07:54;;;;;;;1.77;0.32;;;;;;;12.54;44.83;102197.03;5069749;28;20049;-72
2022/04/09 02:10:23;;;;;;;1.45;0.30;;;;;;;12.42;44.86;102202.59;5069510;28;20098;-69
2022/04/09 02:12:51;;;;;;;1.48;0.30;;;;;;;12.39;45.12;102194.63;5071953;28;20106;-69
2022/04/09 02:15:21;;;;;;;0.45;0.28;;;;;;;12.35;47.27;102196.22;5051789;28;20045;-70
2022/04/09 02:17:50;;;;;;;2.10;0.45;;;;;;;12.31;46.99;102194.31;5051154;28;20127;-70
2022/04/09 02:20:18;;;;;;;1.02;0.40;;;;;;;12.29;47.09;102198.53;5051412;28;20611;-70
2022/04/09 02:22:48;;;;;;;1.65;0.35;;;;;;;12.28;47.34;102191.59;5059493;28;20044;-70
2022/04/09 02:25:17;;;;;;;2.08;0.68;;;;;;;12.24;47.82;102194.84;5071230;28;20055;-70
2022/04/09 02:27:46;;;;;;;0.65;0.30;;;;;;;12.21;47.36;102197.31;5071599;28;20138;-72
2022/04/09 02:30:15;;;;;;;1.45;0.40;;;;;;;12.15;48.39;102186.63;5070864;28;20048;-70
2022/04/09 02:32:48;;;;;;;0.60;0.22;;;;;;;12.10;47.70;102193.34;5071054;28;20080;-71
2022/04/09 02:35:17;;;;;;;7.88;0.95;;;;;;;12.02;48.30;102190.38;5071017;28;20061;-72
2022/04/09 02:37:46;;;;;;;1.77;0.57;;;;;;;11.95;48.02;102202.16;5070516;28;20625;-70
2022/04/09 02:40:15;;;;;;;2.10;0.85;;;;;;;11.89;48.11;102196.69;5070846;28;20126;-70
2022/04/09 02:42:44;;;;;;;0.00;0.00;;;;;;;11.79;48.96;102197.03;5070649;28;20049;-70
2022/04/09 02:45:13;;;;;;;2.10;0.35;;;;;;;11.70;48.78;102192.31;5070790;28;20588;-71
2022/04/09 02:47:42;;;;;;;1.27;0.60;;;;;;;11.60;49.22;102195.28;5070410;28;20056;-71
2022/04/09 02:50:12;;;;;;;0.80;0.40;;;;;;;11.59;50.39;102202.97;5070896;28;20091;-72
2022/04/09 02:52:42;;;;;;;0.68;0.30;;;;;;;11.51;49.70;102211.25;5053794;28;20048;-73
2022/04/09 02:55:12;;;;;;;0.35;0.25;;;;;;;11.42;49.83;102208.22;5072230;28;20052;-77
2022/04/09 02:57:40;;;;;;;1.33;0.30;;;;;;;11.39;49.54;102217.56;5070762;28;20611;-76
2022/04/09 03:00:13;;;;;;;1.65;0.50;;;;;;;11.29;50.33;102217.09;5070098;28;20049;-73
2022/04/09 03:02:42;;;;;;;1.15;0.32;;;;;;;11.23;50.27;102223.69;5070052;28;20123;-74
2022/04/09 03:05:13;;;;;;;1.15;0.55;;;;;;;11.16;51.35;102225.06;5070431;28;20106;-73
2022/04/09 03:07:41;;;;;;;1.17;0.60;;;;;;;11.09;51.12;102241.13;5069822;28;20068;-73
2022/04/09 03:10:12;;;;;;;1.63;0.70;;;;;;;11.01;50.84;102240.69;5070425;28;20062;-74
2022/04/09 03:12:46;;;;;;;0.57;0.40;;;;;;;10.96;51.60;102249.94;5071016;28;20076;-73
2022/04/09 03:15:16;;;;;;;3.30;0.40;;;;;;;10.88;51.39;102253.81;5069618;28;20681;-74
2022/04/09 03:17:45;;;;;;;1.35;0.30;;;;;;;10.82;51.74;102259.59;5069467;28;20053;-73
2022/04/09 03:20:15;;;;;;;0.30;0.30;;;;;;;10.75;51.18;102269.56;5070376;28;20045;-76
2022/04/09 03:22:53;;;;;;;2.25;0.43;;;;;;;10.66;51.46;102270.81;5069722;28;20056;-76
2022/04/09 03:25:21;;;;;;;0.60;0.50;;;;;;;10.61;52.36;102272.28;5070048;28;20071;-72
2022/04/09 03:27:50;;;;;;;1.90;1.13;;;;;;;10.55;52.66;102277.13;5069537;28;20047;-75
2022/04/09 03:30:18;;;;;;;1.17;0.50;;;;;;;10.51;53.21;102285.53;5070110;28;20490;-74
2022/04/09 03:32:47;;;;;;;1.17;0.40;;;;;;;10.42;53.07;102274.69;5069411;28;20616;-75
2022/04/09 03:35:17;;;;;;;2.65;0.40;;;;;;;10.40;53.11;102287.56;5069680;28;20044;-73
2022/04/09 03:37:46;;;;;;;0.55;0.40;;;;;;;10.32;52.83;102298.28;5069874;28;20106;-73
2022/04/09 03:40:15;;;;;;;1.27;0.30;;;;;;;10.26;53.35;102298.78;5069817;28;20140;-73
2022/04/09 03:42:43;;;;;;;2.80;0.50;;;;;;;10.20;53.37;102303.63;5068598;28;20044;-75
2022/04/09 03:45:12;;;;;;;1.20;0.52;;;;;;;10.12;54.12;102300.59;5069997;28;20476;-77
2022/04/09 03:47:41;;;;;;;5.90;0.30;;;;;;;10.15;54.65;102308.56;5068974;28;20075;-74
2022/04/09 03:50:10;;;;;;;2.25;0.50;;;;;;;10.07;55.02;102307.22;5072093;28;20040;-78
2022/04/09 03:52:40;;;;;;;1.58;0.50;;;;;;;10.05;55.22;102304.53;5069701;28;20052;-76
2022/04/09 03:55:09;;;;;;;2.78;0.60;;;;;;;10.09;55.46;102318.53;5069806;28;20053;-74
2022/04/09 03:57:38;;;;;;;0.70;0.35;;;;;;;10.03;54.93;102315.59;5068788;28;20041;-75
2022/04/09 04:00:08;;;;;;;0.50;0.40;;;;;;;9.99;54.79;102305.91;5068509;28;20048;-74
2022/04/09 04:02:36;;;;;;;1.35;0.60;;;;;;;9.94;54.81;102318.59;5069223;28;20048;-75
2022/04/09 04:05:06;;;;;;;0.63;0.60;;;;;;;9.95;55.13;102322.94;5068810;28;20044;-74
2022/04/09 04:07:35;;;;;;;1.42;0.40;;;;;;;9.92;55.31;102327.94;5069329;28;20047;-76
2022/04/09 04:10:09;;;;;;;0.77;0.50;;;;;;;9.81;55.39;102311.81;5069107;28;20084;-76
2022/04/09 04:12:37;;;;;;;4.65;0.68;;;;;;;9.92;55.04;102334.78;5069478;28;20052;-76
2022/04/09 04:15:07;;;;;;;3.20;0.50;;;;;;;9.91;55.57;102345.94;5069021;28;20083;-76
2022/04/09 04:17:40;;;;;;;1.10;0.60;;;;;;;9.80;55.30;102338.47;5069041;28;20102;-76
2022/04/09 04:20:10;;;;;;;2.22;0.50;;;;;;;9.76;56.32;102341.69;5068942;28;20136;-75
2022/04/09 04:22:39;;;;;;;1.65;0.68;;;;;;;9.84;56.37;102355.03;5068448;28;20132;-74
2022/04/09 04:25:10;;;;;;;1.20;0.52;;;;;;;9.73;56.55;102344.06;5068583;28;20109;-75
2022/04/09 04:27:43;;;;;;;1.60;0.80;;;;;;;9.68;57.03;102340.31;5069020;28;20048;-75
2022/04/09 04:30:12;;;;;;;2.13;0.93;;;;;;;9.71;57.64;102362.88;5068763;28;20538;-74
2022/04/09 04:32:41;;;;;;;2.22;0.70;;;;;;;9.57;57.25;102349.13;5068975;28;20041;-74
2022/04/09 04:35:11;;;;;;;1.48;0.75;;;;;;;9.54;57.28;102349.84;5068454;28;20478;-73
2022/04/09 04:37:40;;;;;;;0.95;0.63;;;;;;;9.55;58.12;102356.81;5068601;28;20051;-73
2022/04/09 04:40:12;;;;;;;0.93;0.70;;;;;;;9.58;57.69;102356.09;5068489;28;20048;-74
2022/04/09 04:42:40;;;;;;;3.42;0.90;;;;;;;9.59;57.68;102365.63;5068532;28;20490;-73
2022/04/09 04:45:10;;;;;;;0.82;0.50;;;;;;;9.58;58.04;102361.28;5072096;28;20554;-75
2022/04/09 04:50:27;;;;;;;1.80;0.70;;;;;;;9.53;59.22;102362.66;5065188;28;20132;-75
2022/04/09 04:52:55;;;;;;;5.85;0.85;;;;;;;9.54;59.95;102378.28;5067950;28;20098;-75
2022/04/09 04:55:26;;;;;;;1.80;0.80;;;;;;;9.52;59.88;102377.28;5068887;28;20098;-74
2022/04/09 04:57:55;;;;;;;1.27;0.57;;;;;;;9.41;60.29;102368.91;5068319;28;20586;-76
2022/04/09 05:00:31;;;;;;;0.40;0.40;;;;;;;9.44;60.22;102379.44;5068115;28;20581;-75
2022/04/09 05:03:00;;;;;;;1.52;0.60;;;;;;;9.34;60.41;102374.50;5067820;28;20048;-75
2022/04/09 05:05:28;;;;;;;3.72;1.05;;;;;;;9.21;60.87;102359.97;5068357;28;20102;-74
2022/04/09 05:07:57;;;;;;;1.95;0.40;;;;;;;9.28;60.36;102392.22;5067438;28;20102;-75
2022/04/09 05:10:35;;;;;;;0.32;0.30;;;;;;;9.26;61.10;102393.81;5068330;28;20045;-75
2022/04/09 05:13:17;;;;;;;1.58;0.55;;;;;;;9.29;60.94;102398.28;5069023;28;20502;-73
2022/04/09 05:15:45;;;;;;;1.60;0.63;;;;;;;9.29;61.57;102394.00;5068584;28;20105;-75
2022/04/09 05:18:14;;;;;;;1.50;0.57;;;;;;;9.30;61.48;102403.53;5068339;28;20059;-75
2022/04/09 05:20:42;;;;;;;1.75;0.68;;;;;;;9.27;61.85;102400.75;5068089;28;20048;-73
2022/04/09 05:23:11;;;;;;;0.50;0.40;;;;;;;9.27;60.47;102405.03;5067833;28;20134;-73
2022/04/09 05:25:41;;;;;;;1.58;0.60;;;;;;;9.26;61.13;102401.56;5068226;28;20049;-72
2022/04/09 05:28:10;;;;;;;3.05;0.77;;;;;;;9.25;60.47;102399.75;5067698;28;20076;-71
2022/04/09 05:30:38;;;;;;;1.80;0.60;;;;;;;9.22;60.78;102402.16;5067560;28;20097;-72
2022/04/09 05:33:09;;;;;;;2.85;0.55;;;;;;;9.22;60.66;102412.50;5067753;28;20044;-71
2022/04/09 05:35:37;;;;;;;1.95;0.40;;;;;;;9.21;60.63;102397.81;5067794;28;20055;-71
2022/04/09 05:38:07;;;;;;;3.70;0.50;;;;;;;9.12;60.03;102381.75;5067998;28;20489;-72
2022/04/09 05:40:36;;;;;;;2.67;0.70;;;;;;;9.19;60.66;102397.72;5068752;28;20048;-73
2022/04/09 05:43:06;;;;;;;3.35;0.60;;;;;;;9.11;60.28;102377.38;5069148;28;20041;-72
2022/04/09 05:45:35;;;;;;;2.90;0.47;;;;;;;9.15;60.66;102392.25;5068336;28;20700;-73
2022/04/09 05:48:03;;;;;;;2.15;0.73;;;;;;;9.09;60.95;102397.94;5067121;28;20045;-72
2022/04/09 05:50:32;;;;;;;0.80;0.45;;;;;;;8.96;61.89;102398.88;5067904;28;20051;-71
2022/04/09 05:53:01;;;;;;;0.43;0.35;;;;;;;8.84;62.53;102397.19;5067666;28;20094;-71
2022/04/09 05:55:29;;;;;;;1.10;0.40;;;;;;;8.82;64.08;102397.13;5068114;28;20555;-71
2022/04/09 05:57:58;;;;;;;1.95;0.57;;;;;;;8.72;64.81;102398.22;5069437;28;20040;-71
2022/04/09 06:00:28;;;;;;;3.78;0.77;;;;;;;8.68;65.27;102397.91;5087895;28;20048;-71
2022/04/09 06:02:56;;;;;;;0.70;0.40;;;;;;;8.69;64.64;102407.47;5087801;28;20052;-71
2022/04/09 06:05:26;;;;;;;1.00;0.55;;;;;;;8.66;64.45;102404.66;5088154;28;20494;-71
2022/04/09 06:07:54;;;;;;;2.50;0.80;;;;;;;8.52;64.64;102399.53;5087518;28;20131;-71
2022/04/09 06:10:23;;;;;;;1.23;0.40;;;;;;;8.56;65.03;102406.66;5087689;28;20079;-72
2022/04/09 06:12:51;;;;;;;2.03;0.55;;;;;;;8.54;65.05;102407.38;5091417;27;20055;-71
2022/04/09 06:15:21;;;;;;;2.75;0.63;;;;;;;8.57;65.93;102408.47;5051450;28;20057;-72
2022/04/09 06:17:51;;;;;;;1.67;0.50;;;;;;;8.56;65.66;102411.81;5051165;28;20049;-72
2022/04/09 06:20:20;;;;;;;2.92;1.00;;;;;;;8.55;66.04;102410.06;5051617;28;20111;-72
2022/04/09 06:22:48;;;;;;;2.65;1.02;;;;;;;8.54;65.89;102408.28;5059904;28;20049;-72
2022/04/09 06:25:16;;;;;;;3.15;1.25;;;;;;;8.44;66.04;102400.72;5071392;28;20052;-73
2022/04/09 06:27:45;;;;;;;3.30;0.93;;;;;;;8.46;66.13;102414.63;5071467;28;20125;-72
2022/04/09 06:30:14;;;;;;;3.95;0.93;;;;;;;8.37;67.33;102403.66;5071370;28;20055;-72
2022/04/09 06:32:43;;;;;;;2.38;1.05;;;;;;;8.37;67.58;102419.16;5070429;28;20041;-72
2022/04/09 06:35:13;;;;;;;2.83;0.70;;;;;;;8.29;68.48;102407.44;5071315;28;20569;-72
2022/04/09 06:37:41;;;;;;;2.72;1.08;;;;;;;8.31;68.81;102403.25;5073319;28;20167;-72
2022/04/09 06:40:11;;;;;;;2.47;0.80;;;;;;;8.36;69.16;102417.34;5072241;28;20117;-72
2022/04/09 06:42:40;;;;;;;2.58;0.88;;;;;;;8.29;69.15;102407.44;5071056;28;20072;-73
2022/04/09 06:45:09;;;;;;;1.00;0.85;;;;;;;8.30;68.92;102410.13;5070738;28;20123;-72
2022/04/09 06:47:39;;;;;;;0.75;0.40;;;;;;;8.11;70.12;102405.44;5070328;28;20058;-71
2022/04/09 06:50:13;;;;;;;3.90;0.73;;;;;;;8.09;70.41;102417.34;5070435;28;20527;-72
2022/04/09 06:52:42;;;;;;;2.55;0.98;;;;;;;8.05;71.26;102414.47;5070748;28;20056;-72
2022/04/09 06:55:12;;;;;;;2.30;0.77;;;;;;;8.04;71.31;102423.88;5070908;28;20048;-72
2022/04/09 06:57:41;;;;;;;2.08;0.70;;;;;;;7.99;71.02;102420.09;5069931;28;20508;-72
2022/04/09 07:00:13;;;;;;;2.55;0.73;;;;;;;8.01;71.73;102423.66;5070829;28;20425;-73
2022/04/09 07:02:42;;;;;;;2.83;1.35;;;;;;;7.99;72.88;102414.94;5070040;28;20430;-71
2022/04/09 07:05:13;;;;;;;1.80;0.52;;;;;;;8.07;73.45;102423.19;5070600;28;20134;-72
2022/04/09 07:07:41;;;;;;;2.03;1.00;;;;;;;8.06;72.71;102417.13;5069475;28;20045;-72
2022/04/09 07:10:11;;;;;;;2.63;1.00;;;;;;;8.01;72.37;102408.19;5070498;28;20044;-72
2022/04/09 07:12:40;;;;;;;1.05;0.60;;;;;;;7.95;72.80;102394.94;5070091;28;20084;-72
2022/04/09 07:15:09;;;;;;;2.10;0.80;;;;;;;8.02;71.98;102404.84;5070552;28;20071;-72
2022/04/09 07:17:39;;;;;;;3.40;0.98;;;;;;;8.01;72.47;102407.31;5069900;28;20102;-71
2022/04/09 07:20:09;;;;;;;3.47;1.10;;;;;;;7.88;72.63;102403.00;5070020;28;20056;-72
2022/04/09 07:22:40;;;;;;;3.67;0.98;;;;;;;8.00;73.01;102427.03;5069767;28;20052;-71
2022/04/09 07:25:10;;;;;;;1.10;0.60;;;;;;;7.98;72.37;102429.50;5070005;28;20049;-73
2022/04/09 07:27:40;;;;;;;1.45;0.68;;;;;;;7.98;72.95;102423.47;5069619;28;20216;-72
2022/04/09 07:30:11;;;;;;;1.77;0.70;;;;;;;8.01;72.48;102421.09;5069757;28;20080;-73
2022/04/09 07:32:40;;;;;;;3.90;0.85;;;;;;;7.94;72.46;102416.31;5069607;28;20048;-73
2022/04/09 07:35:10;;;;;;;3.45;0.88;;;;;;;7.88;72.75;102408.16;5072048;28;20112;-73
2022/04/09 07:37:43;;;;;;;2.17;0.75;;;;;;;7.85;73.51;102413.13;5071156;28;20114;-73
2022/04/09 07:40:14;;;;;;;1.35;0.90;;;;;;;7.96;73.73;102425.94;5070172;28;20080;-73
2022/04/09 07:42:44;;;;;;;7.43;1.08;;;;;;;7.96;73.99;102428.50;5069302;28;20075;-72
2022/04/09 07:45:13;;;;;;;2.42;0.88;;;;;;;7.99;74.35;102430.41;5069449;28;20573;-72
2022/04/09 07:47:42;;;;;;;1.67;0.73;;;;;;;7.95;74.06;102418.13;5069615;28;20121;-72
2022/04/09 07:50:12;;;;;;;3.03;0.80;;;;;;;7.96;74.08;102425.03;5069061;28;20094;-72
2022/04/09 07:52:43;;;;;;;2.53;1.48;;;;;;;7.92;75.10;102417.91;5069184;28;20509;-72
2022/04/09 07:55:15;;;;;;;7.55;1.42;;;;;;;7.91;74.19;102417.00;5069329;28;20040;-70
2022/04/09 07:57:43;;;;;;;1.73;1.05;;;;;;;7.91;73.97;102421.28;5068774;28;20120;-73
2022/04/09 08:00:13;;;;;;;5.13;1.20;;;;;;;7.83;74.44;102427.59;5068799;28;20044;-72
2022/04/09 08:02:41;;;;;;;2.97;1.20;;;;;;;7.76;74.79;102428.84;5069344;28;20044;-72
2022/04/09 08:05:10;;;;;;;6.82;1.65;;;;;;;7.74;74.98;102430.44;5069141;28;20045;-73
2022/04/09 08:07:39;;;;;;;3.00;1.40;;;;;;;7.74;74.50;102438.16;5068945;28;20094;-72
2022/04/09 08:10:11;;;;;;;4.40;1.25;;;;;;;7.65;74.35;102429.81;5069480;28;20068;-72
2022/04/09 08:12:40;;;;;;;3.70;1.10;;;;;;;7.64;74.38;102431.50;5069624;28;20052;-72
2022/04/09 08:15:10;;;;;;;2.53;1.38;;;;;;;7.63;74.33;102440.03;5068778;28;20091;-73
2022/04/09 08:17:39;;;;;;;3.90;1.33;;;;;;;7.51;74.84;102428.88;5069381;28;20095;-73
2022/04/09 08:20:09;;;;;;;2.42;1.20;;;;;;;7.47;74.59;102437.19;5068772;28;20127;-72
2022/04/09 08:22:38;;;;;;;3.78;1.60;;;;;;;7.47;75.44;102442.34;5069007;28;20052;-73
2022/04/09 08:25:07;;;;;;;3.35;1.80;;;;;;;7.47;75.56;102437.19;5068979;28;20080;-73
2022/04/09 08:27:38;;;;;;;3.72;1.20;;;;;;;7.42;75.75;102433.38;5069123;28;20137;-74
2022/04/09 08:30:08;;;;;;;3.72;1.50;;;;;;;7.40;75.63;102445.25;5068888;28;20797;-73
2022/04/09 08:32:37;;;;;;;4.97;1.40;;;;;;;7.30;76.00;102431.75;5070918;28;20532;-73
2022/04/09 08:35:06;;;;;;;7.97;1.95;;;;;;;7.32;76.34;102453.34;5068763;28;20489;-73
2022/04/09 08:37:35;;;;;;;3.38;1.60;;;;;;;7.30;76.84;102442.03;5069359;28;20053;-72
2022/04/09 08:40:04;;;;;;;4.57;1.70;;;;;;;7.06;79.21;102417.19;5068444;28;20057;-73
2022/04/09 08:42:33;;;;;;;2.38;1.20;;;;;;;6.97;80.25;102413.97;5068286;28;20482;-72
2022/04/09 08:45:03;;;;;;;2.70;1.55;;;;;;;7.07;80.88;102436.97;5068737;28;20470;-72
2022/04/09 08:47:33;;;;;;;3.92;1.35;;;;;;;7.04;79.74;102434.19;5068779;28;20055;-72
2022/04/09 08:50:03;;;;;;;2.28;1.38;;;;;;;7.01;80.57;102440.03;5067890;28;20048;-72
2022/04/09 08:52:32;;;;;;;4.45;1.23;;;;;;;6.90;79.84;102420.34;5068498;28;20114;-72
2022/04/09 08:55:00;;;;;;;4.50;1.48;;;;;;;6.87;79.90;102413.31;5068887;28;20060;-72
2022/04/09 08:57:29;;;;;;;4.22;1.70;;;;;;;6.89;79.79;102424.59;5067930;28;20052;-73
2022/04/09 08:59:58;;;;;;;1.63;0.90;;;;;;;6.85;80.12;102422.59;5068269;28;20091;-73
2022/04/09 09:02:28;;;;;;;3.20;1.30;;;;;;;6.81;80.06;102417.13;5068528;28;20076;-72
2022/04/09 09:04:57;;;;;;;2.08;1.30;;;;;;;6.87;79.51;102426.19;5068248;28;20051;-73
2022/04/09 09:07:25;;;;;;;2.20;1.45;;;;;;;6.83;80.33;102421.59;5068325;28;20044;-72
2022/04/09 09:09:54;;;;;;;5.43;1.35;;;;;;;6.70;80.63;102412.09;5058661;28;20040;-73
2022/04/09 09:12:30;;;;;;;6.10;1.45;;;;;;;6.67;80.98;102422.16;5064457;28;20052;-73
2022/04/09 09:14:58;;;;;;;4.18;1.10;;;;;;;6.64;81.78;102421.03;5067863;28;20055;-73
2022/04/09 09:17:32;;;;;;;5.63;1.15;;;;;;;6.54;81.77;102419.50;5068071;28;20105;-74
2022/04/09 09:20:01;;;;;;;3.40;1.30;;;;;;;6.59;81.91;102428.41;5067960;28;20127;-72
2022/04/09 09:22:40;;;;;;;4.65;1.10;;;;;;;6.58;81.21;102430.91;5067645;28;20051;-72
2022/04/09 09:25:10;;;;;;;3.25;1.88;;;;;;;6.57;82.34;102430.00;5067575;28;20513;-72
2022/04/09 09:27:39;;;;;;;5.80;1.30;;;;;;;6.45;82.68;102422.28;5068074;28;20134;-72
2022/04/09 09:30:09;;;;;;;2.15;1.23;;;;;;;6.56;82.43;102441.06;5069468;28;20084;-73
2022/04/09 09:32:41;;;;;;;2.90;1.58;;;;;;;6.55;82.76;102443.53;5069771;28;20045;-72
2022/04/09 09:35:12;;;;;;;3.53;1.48;;;;;;;6.52;82.69;102445.88;5068390;28;20079;-73
2022/04/09 09:37:40;;;;;;;4.43;1.40;;;;;;;6.39;82.34;102432.13;5068196;28;20071;-72
2022/04/09 09:40:10;;;;;;;4.97;1.27;;;;;;;6.45;82.82;102448.00;5067445;28;20110;-72
2022/04/09 09:42:39;;;;;;;2.25;1.23;;;;;;;6.42;84.07;102446.91;5068084;28;20098;-73
2022/04/09 09:45:09;;;;;;;1.83;0.95;;;;;;;6.21;87.46;102423.06;5067482;28;20053;-72
2022/04/09 09:47:55;;;;;;;1.50;0.98;;;;;;;6.15;91.87;102432.91;5071253;28;20053;-72
2022/04/09 09:50:42;;;;;;;1.50;0.80;;;;;;;6.12;92.38;102432.69;5072076;28;20110;-73
2022/04/09 09:53:10;;;;;;;1.90;1.02;;;;;;;6.17;92.55;102436.47;5071654;28;20052;-72
2022/04/09 09:55:44;;;;;;;2.25;1.05;;;;;;;6.22;92.64;102441.16;5071147;28;20052;-73
2022/04/09 09:58:16;;;;;;;2.47;0.70;;;;;;;6.22;93.76;102435.13;5071434;28;20156;-73
2022/04/09 10:00:45;;;;;;;3.40;1.23;;;;;;;6.26;94.80;102442.28;5071500;28;20051;-72
2022/04/09 10:03:16;;;;;;;2.95;1.10;;;;;;;6.27;94.21;102439.81;5070848;28;20117;-73
2022/04/09 10:05:45;;;;;;;3.42;0.90;;;;;;;6.27;92.76;102438.94;5072089;28;20044;-72
2022/04/09 10:08:13;;;;;;;4.07;1.17;;;;;;;6.27;92.03;102437.25;5070940;28;20044;-73
2022/04/09 10:10:46;;;;;;;2.90;1.00;;;;;;;6.28;92.21;102439.06;5071665;28;20104;-73
2022/04/09 10:13:17;;;;;;;1.77;0.90;;;;;;;6.28;90.67;102435.59;5071598;28;20067;-72
2022/04/09 10:15:50;;;;;;;1.88;1.05;;;;;;;6.27;90.81;102436.34;5071170;28;20049;-72
2022/04/09 10:18:23;;;;;;;2.38;1.00;;;;;;;6.23;92.10;102430.13;5071142;28;20048;-72
2022/04/09 10:20:55;;;;;;;6.25;1.17;;;;;;;6.22;92.23;102432.56;5071198;28;20084;-73
2022/04/09 10:23:26;;;;;;;1.80;0.63;;;;;;;6.27;92.30;102438.94;5071168;28;20048;-72
2022/04/09 10:25:55;;;;;;;2.40;1.13;;;;;;;6.22;92.30;102430.88;5071638;28;20045;-72
2022/04/09 10:28:35;;;;;;;5.18;1.75;;;;;;;6.13;91.25;102419.91;5072723;28;20045;-72
2022/04/09 10:31:04;;;;;;;3.03;1.23;;;;;;;6.20;91.93;102441.84;5072811;28;20056;-72
2022/04/09 10:33:36;;;;;;;2.63;1.40;;;;;;;6.13;93.24;102439.59;5071186;28;20056;-72
2022/04/09 10:36:05;;;;;;;2.80;1.20;;;;;;;6.12;93.63;102440.38;5071273;28;20052;-73
2022/04/09 10:38:38;;;;;;;3.60;1.67;;;;;;;6.09;94.70;102443.59;5070905;28;20044;-70
2022/04/09 10:41:28;;;;;;;3.80;1.58;;;;;;;5.84;94.87;102421.19;5070793;28;20486;-72
2022/04/09 10:44:01;;;;;;;2.85;1.10;;;;;;;5.93;95.19;102445.75;5070486;28;20048;-73
2022/04/09 10:46:39;;;;;;;2.03;1.00;;;;;;;5.92;94.90;102444.88;5070795;28;20051;-73
2022/04/09 10:49:32;;;;;;;1.42;0.95;;;;;;;5.96;94.57;102457.22;5070408;28;20102;-73
2022/04/09 10:52:11;;;;;;;2.40;1.02;;;;;;;5.90;93.59;102441.28;5051565;28;20498;-73
2022/04/09 10:54:43;;;;;;;2.45;1.13;;;;;;;5.95;93.47;102450.28;5069502;28;20055;-73
2022/04/09 10:57:23;;;;;;;2.88;1.33;;;;;;;5.99;93.68;102451.41;5070126;28;20057;-73
2022/04/09 11:00:01;;;;;;;3.83;1.20;;;;;;;5.85;93.58;102427.22;5049784;28;20037;-73
2022/04/09 11:02:32;;;;;;;2.08;1.10;;;;;;;5.97;93.70;102443.56;5064711;28;20566;-73
2022/04/09 11:05:21;;;;;;;2.65;1.52;;;;;;;5.97;94.24;102452.97;5070181;28;20220;-73
2022/04/09 11:08:09;;;;;;;2.05;1.17;;;;;;;5.89;95.23;102436.94;5070124;28;20426;-73
2022/04/09 11:10:38;;;;;;;3.13;1.20;;;;;;;5.95;95.53;102450.28;5070143;28;20048;-73
2022/04/09 11:13:10;;;;;;;4.63;1.15;;;;;;;5.93;94.72;102446.66;5070816;28;20130;-71
2022/04/09 11:15:40;;;;;;;2.22;1.10;;;;;;;5.93;94.35;102449.22;5070601;28;20044;-73
2022/04/09 11:18:09;;;;;;;2.67;1.10;;;;;;;5.86;94.12;102444.41;5070201;28;20780;-72
2022/04/09 11:20:40;;;;;;;2.08;1.23;;;;;;;5.79;94.63;102437.03;5070267;28;20497;-73
2022/04/09 11:23:14;;;;;;;2.75;1.23;;;;;;;5.76;95.74;102447.06;5069680;28;20104;-72
2022/04/09 11:25:44;;;;;;;3.15;1.20;;;;;;;5.64;97.24;102437.66;5070305;28;20102;-73
2022/04/09 11:28:14;;;;;;;4.05;1.23;;;;;;;5.65;97.10;102433.41;5073678;28;20566;-73
2022/04/09 11:30:58;;;;;;;3.25;1.17;;;;;;;5.76;96.75;102441.94;5071068;28;20129;-73
2022/04/09 11:33:26;;;;;;;3.38;1.17;;;;;;;5.73;97.73;102440.03;5068740;28;20133;-73
2022/04/09 11:35:57;;;;;;;2.63;1.15;;;;;;;5.75;97.10;102441.06;5070174;28;20133;-72
2022/04/09 11:38:26;;;;;;;2.88;1.33;;;;;;;5.76;96.50;102447.06;5069678;28;20056;-72
2022/04/09 11:40:55;;;;;;;4.45;1.40;;;;;;;5.67;97.33;102426.72;5069847;28;20536;-72
2022/04/09 11:43:25;;;;;;;2.03;1.40;;;;;;;5.71;97.48;102433.00;5069567;28;20472;-73
2022/04/09 11:45:53;;;;;;;3.90;1.20;;;;;;;5.78;97.43;102435.25;5069476;28;20045;-73
2022/04/09 11:48:25;;;;;;;2.60;1.17;;;;;;;5.76;96.84;102439.38;5069834;28;20044;-73